sensor_id;sensor_type;location;lat;lon;timestamp;pressure;altitude;pressure_sealevel;temperature;humidity
72892;BME280;61032;50.782;6.818;2023-05-29T00:00:34;100887.31;;;17.78;54.55
72892;BME280;61032;50.782;6.818;2023-05-29T00:01:34;100886.16;;;17.79;54.68
72892;BME280;61032;50.782;6.818;2023-05-29T00:02:36;100883.38;;;17.79;54.64
72892;BME280;61032;50.782;6.818;2023-05-29T00:03:36;100883.06;;;17.84;54.56
72892;BME280;61032;50.782;6.818;2023-05-29T00:04:36;100883.09;;;17.88;54.58
72892;BME280;61032;50.782;6.818;2023-05-29T00:05:38;100885.47;;;17.86;54.59
72892;BME280;61032;50.782;6.818;2023-05-29T00:06:39;100886.06;;;17.76;54.91
72892;BME280;61032;50.782;6.818;2023-05-29T00:07:41;100885.63;;;17.74;54.87
72892;BME280;61032;50.782;6.818;2023-05-29T00:08:42;100889.53;;;17.69;55.15
72892;BME280;61032;50.782;6.818;2023-05-29T00:09:45;100889.16;;;17.71;55.42
72892;BME280;61032;50.782;6.818;2023-05-29T00:10:45;100890.69;;;17.68;55.39
72892;BME280;61032;50.782;6.818;2023-05-29T00:11:46;100897.88;;;17.69;55.36
72892;BME280;61032;50.782;6.818;2023-05-29T00:12:50;100893.06;;;17.66;55.43
72892;BME280;61032;50.782;6.818;2023-05-29T00:13:51;100901.31;;;17.63;55.61
72892;BME280;61032;50.782;6.818;2023-05-29T00:14:51;100899.91;;;17.53;55.86
72892;BME280;61032;50.782;6.818;2023-05-29T00:15:51;100899.63;;;17.58;55.94
72892;BME280;61032;50.782;6.818;2023-05-29T00:16:51;100892.00;;;17.55;56.12
72892;BME280;61032;50.782;6.818;2023-05-29T00:17:52;100904.47;;;17.42;56.32
72892;BME280;61032;50.782;6.818;2023-05-29T00:18:52;100901.38;;;17.47;56.29
72892;BME280;61032;50.782;6.818;2023-05-29T00:19:53;100901.81;;;17.49;56.41
72892;BME280;61032;50.782;6.818;2023-05-29T00:20:54;100901.59;;;17.58;56.00
72892;BME280;61032;50.782;6.818;2023-05-29T00:21:55;100897.66;;;17.59;56.10
72892;BME280;61032;50.782;6.818;2023-05-29T00:22:55;100905.63;;;17.60;56.02
72892;BME280;61032;50.782;6.818;2023-05-29T00:23:55;100906.44;;;17.61;55.99
72892;BME280;61032;50.782;6.818;2023-05-29T00:24:56;100904.44;;;17.61;55.90
72892;BME280;61032;50.782;6.818;2023-05-29T00:25:56;100908.25;;;17.53;55.95
72892;BME280;61032;50.782;6.818;2023-05-29T00:26:56;100908.53;;;17.48;56.33
72892;BME280;61032;50.782;6.818;2023-05-29T00:27:57;100909.31;;;17.45;56.42
72892;BME280;61032;50.782;6.818;2023-05-29T00:28:57;100907.31;;;17.45;56.73
72892;BME280;61032;50.782;6.818;2023-05-29T00:29:58;100907.81;;;17.51;56.38
72892;BME280;61032;50.782;6.818;2023-05-29T00:30:59;100911.75;;;17.50;56.27
72892;BME280;61032;50.782;6.818;2023-05-29T00:31:59;100907.81;;;17.51;56.43
72892;BME280;61032;50.782;6.818;2023-05-29T00:33:00;100914.91;;;17.48;56.45
72892;BME280;61032;50.782;6.818;2023-05-29T00:34:00;100905.75;;;17.48;56.54
72892;BME280;61032;50.782;6.818;2023-05-29T00:35:00;100911.75;;;17.50;56.66
72892;BME280;61032;50.782;6.818;2023-05-29T00:36:01;100907.38;;;17.49;56.65
72892;BME280;61032;50.782;6.818;2023-05-29T00:37:01;100906.81;;;17.40;56.80
72892;BME280;61032;50.782;6.818;2023-05-29T00:38:02;100907.53;;;17.37;57.01
72892;BME280;61032;50.782;6.818;2023-05-29T00:39:03;100907.03;;;17.31;57.38
72892;BME280;61032;50.782;6.818;2023-05-29T00:40:04;100908.56;;;17.29;57.38
72892;BME280;61032;50.782;6.818;2023-05-29T00:41:04;100909.81;;;17.31;57.42
72892;BME280;61032;50.782;6.818;2023-05-29T00:42:05;100906.22;;;17.31;57.33
72892;BME280;61032;50.782;6.818;2023-05-29T00:43:05;100898.41;;;17.17;57.62
72892;BME280;61032;50.782;6.818;2023-05-29T00:44:06;100905.41;;;17.11;58.13
72892;BME280;61032;50.782;6.818;2023-05-29T00:45:07;100902.63;;;17.11;57.95
72892;BME280;61032;50.782;6.818;2023-05-29T00:46:08;100906.66;;;17.13;58.27
72892;BME280;61032;50.782;6.818;2023-05-29T00:47:10;100908.25;;;17.14;57.95
72892;BME280;61032;50.782;6.818;2023-05-29T00:48:10;100908.91;;;17.08;58.09
72892;BME280;61032;50.782;6.818;2023-05-29T00:49:10;100907.28;;;17.07;58.18
72892;BME280;61032;50.782;6.818;2023-05-29T00:50:12;100906.34;;;16.99;58.63
72892;BME280;61032;50.782;6.818;2023-05-29T00:51:14;100905.56;;;16.99;58.49
72892;BME280;61032;50.782;6.818;2023-05-29T00:52:15;100903.13;;;16.97;58.74
72892;BME280;61032;50.782;6.818;2023-05-29T00:53:15;100904.31;;;16.96;58.59
72892;BME280;61032;50.782;6.818;2023-05-29T00:54:20;100909.84;;;16.96;58.62
72892;BME280;61032;50.782;6.818;2023-05-29T00:55:21;100911.81;;;16.96;58.88
72892;BME280;61032;50.782;6.818;2023-05-29T00:56:22;100908.69;;;16.97;58.80
72892;BME280;61032;50.782;6.818;2023-05-29T00:57:23;100905.03;;;16.93;58.90
72892;BME280;61032;50.782;6.818;2023-05-29T00:58:24;100903.84;;;16.94;58.80
72892;BME280;61032;50.782;6.818;2023-05-29T00:59:29;100898.66;;;16.93;58.95
72892;BME280;61032;50.782;6.818;2023-05-29T01:00:30;100899.47;;;16.93;58.89
72892;BME280;61032;50.782;6.818;2023-05-29T01:01:31;100899.28;;;16.86;59.15
72892;BME280;61032;50.782;6.818;2023-05-29T01:02:32;100901.56;;;16.80;59.30
72892;BME280;61032;50.782;6.818;2023-05-29T01:03:33;100911.88;;;16.80;59.58
72892;BME280;61032;50.782;6.818;2023-05-29T01:04:35;100900.09;;;16.87;59.11
72892;BME280;61032;50.782;6.818;2023-05-29T01:05:36;100905.28;;;16.88;59.16
72892;BME280;61032;50.782;6.818;2023-05-29T01:06:37;100906.31;;;16.80;59.39
72892;BME280;61032;50.782;6.818;2023-05-29T01:07:38;100903.81;;;16.75;59.43
72892;BME280;61032;50.782;6.818;2023-05-29T01:08:38;100905.00;;;16.74;59.55
72892;BME280;61032;50.782;6.818;2023-05-29T01:09:39;100906.50;;;16.71;59.79
72892;BME280;61032;50.782;6.818;2023-05-29T01:10:41;100903.00;;;16.74;59.61
72892;BME280;61032;50.782;6.818;2023-05-29T01:13:22;100906.25;;;16.61;60.06
72892;BME280;61032;50.782;6.818;2023-05-29T01:17:02;100904.09;;;16.54;60.10
72892;BME280;61032;50.782;6.818;2023-05-29T01:24:07;100903.50;;;16.29;60.80
72892;BME280;61032;50.782;6.818;2023-05-29T01:25:11;100914.41;;;16.22;60.98
72892;BME280;61032;50.782;6.818;2023-05-29T01:27:34;100914.16;;;16.11;61.42
72892;BME280;61032;50.782;6.818;2023-05-29T01:28:45;100918.69;;;16.04;61.64
72892;BME280;61032;50.782;6.818;2023-05-29T01:29:49;100918.19;;;16.14;61.65
72892;BME280;61032;50.782;6.818;2023-05-29T01:30:51;100923.38;;;16.15;61.26
72892;BME280;61032;50.782;6.818;2023-05-29T01:31:52;100921.31;;;16.12;61.47
72892;BME280;61032;50.782;6.818;2023-05-29T01:32:56;100928.38;;;16.10;61.49
72892;BME280;61032;50.782;6.818;2023-05-29T01:33:57;100928.63;;;16.05;61.63
72892;BME280;61032;50.782;6.818;2023-05-29T01:34:58;100923.38;;;16.00;61.82
72892;BME280;61032;50.782;6.818;2023-05-29T01:35:59;100924.94;;;16.01;61.82
72892;BME280;61032;50.782;6.818;2023-05-29T01:36:59;100924.94;;;16.01;61.76
72892;BME280;61032;50.782;6.818;2023-05-29T01:37:59;100921.38;;;16.00;61.57
72892;BME280;61032;50.782;6.818;2023-05-29T01:39:00;100929.69;;;16.00;61.67
72892;BME280;61032;50.782;6.818;2023-05-29T01:40:01;100918.25;;;16.02;61.70
72892;BME280;61032;50.782;6.818;2023-05-29T01:41:02;100921.38;;;16.00;61.56
72892;BME280;61032;50.782;6.818;2023-05-29T01:42:04;100919.78;;;15.99;61.33
72892;BME280;61032;50.782;6.818;2023-05-29T01:43:05;100922.91;;;15.98;61.58
72892;BME280;61032;50.782;6.818;2023-05-29T01:44:08;100924.94;;;16.01;61.24
72892;BME280;61032;50.782;6.818;2023-05-29T01:45:09;100921.66;;;15.95;61.49
72892;BME280;61032;50.782;6.818;2023-05-29T01:46:15;100924.53;;;15.99;61.23
72892;BME280;61032;50.782;6.818;2023-05-29T01:47:16;100921.31;;;15.97;61.28
72892;BME280;61032;50.782;6.818;2023-05-29T01:48:17;100923.38;;;16.00;61.29
72892;BME280;61032;50.782;6.818;2023-05-29T01:49:17;100928.47;;;15.98;60.74
72892;BME280;61032;50.782;6.818;2023-05-29T01:50:19;100929.16;;;15.95;60.77
72892;BME280;61032;50.782;6.818;2023-05-29T01:51:21;100921.22;;;15.93;61.04
72892;BME280;61032;50.782;6.818;2023-05-29T01:52:21;100930.78;;;15.96;61.03
72892;BME280;61032;50.782;6.818;2023-05-29T01:53:22;100931.13;;;15.94;60.96
72892;BME280;61032;50.782;6.818;2023-05-29T01:54:23;100929.44;;;15.90;61.41
72892;BME280;61032;50.782;6.818;2023-05-29T01:55:23;100932.44;;;15.85;61.42
72892;BME280;61032;50.782;6.818;2023-05-29T01:56:24;100933.59;;;15.84;61.43
72892;BME280;61032;50.782;6.818;2023-05-29T01:57:26;100930.84;;;15.84;61.32
72892;BME280;61032;50.782;6.818;2023-05-29T01:58:27;100933.97;;;15.82;61.51
72892;BME280;61032;50.782;6.818;2023-05-29T01:59:28;100937.09;;;15.80;61.26
72892;BME280;61032;50.782;6.818;2023-05-29T02:00:30;100943.78;;;15.79;61.28
72892;BME280;61032;50.782;6.818;2023-05-29T02:01:31;100938.34;;;15.83;61.16
72892;BME280;61032;50.782;6.818;2023-05-29T02:02:31;100938.00;;;15.85;60.88
72892;BME280;61032;50.782;6.818;2023-05-29T02:03:32;100930.38;;;15.81;60.65
72892;BME280;61032;50.782;6.818;2023-05-29T02:04:33;100936.66;;;15.78;60.71
72892;BME280;61032;50.782;6.818;2023-05-29T02:05:33;100939.44;;;15.78;61.06
72892;BME280;61032;50.782;6.818;2023-05-29T02:06:33;100932.28;;;15.77;60.60
72892;BME280;61032;50.782;6.818;2023-05-29T02:07:34;100940.59;;;15.77;60.32
72892;BME280;61032;50.782;6.818;2023-05-29T02:08:36;100940.84;;;15.72;60.19
72892;BME280;61032;50.782;6.818;2023-05-29T02:09:37;100944.56;;;15.64;60.47
72892;BME280;61032;50.782;6.818;2023-05-29T02:10:37;100941.00;;;15.64;60.50
72892;BME280;61032;50.782;6.818;2023-05-29T02:11:38;100944.81;;;15.59;60.50
72892;BME280;61032;50.782;6.818;2023-05-29T02:12:44;100945.53;;;15.56;60.31
72892;BME280;61032;50.782;6.818;2023-05-29T02:13:44;100942.63;;;15.53;60.32
72892;BME280;61032;50.782;6.818;2023-05-29T02:14:45;100947.25;;;15.48;60.54
72892;BME280;61032;50.782;6.818;2023-05-29T02:15:46;100949.00;;;15.53;60.54
72892;BME280;61032;50.782;6.818;2023-05-29T02:16:47;100945.41;;;15.53;60.05
72892;BME280;61032;50.782;6.818;2023-05-29T02:17:49;100945.75;;;15.51;60.26
72892;BME280;61032;50.782;6.818;2023-05-29T02:18:50;100951.09;;;15.44;60.03
72892;BME280;61032;50.782;6.818;2023-05-29T02:19:51;100955.00;;;15.43;60.41
72892;BME280;61032;50.782;6.818;2023-05-29T02:20:52;100958.94;;;15.42;59.89
72892;BME280;61032;50.782;6.818;2023-05-29T02:21:53;100958.84;;;15.38;60.24
72892;BME280;61032;50.782;6.818;2023-05-29T02:22:54;100955.19;;;15.34;60.12
72892;BME280;61032;50.782;6.818;2023-05-29T02:23:54;100960.16;;;15.29;60.34
72892;BME280;61032;50.782;6.818;2023-05-29T02:24:55;100958.19;;;15.29;59.91
72892;BME280;61032;50.782;6.818;2023-05-29T02:25:55;100961.06;;;15.33;59.87
72892;BME280;61032;50.782;6.818;2023-05-29T02:26:55;100959.44;;;15.32;59.95
72892;BME280;61032;50.782;6.818;2023-05-29T02:27:56;100966.16;;;15.31;59.93
72892;BME280;61032;50.782;6.818;2023-05-29T02:28:56;100969.63;;;15.28;59.77
72892;BME280;61032;50.782;6.818;2023-05-29T02:29:57;100961.09;;;15.21;59.83
72892;BME280;61032;50.782;6.818;2023-05-29T02:30:58;100967.69;;;15.16;59.92
72892;BME280;61032;50.782;6.818;2023-05-29T02:31:58;100965.34;;;15.18;60.05
72892;BME280;61032;50.782;6.818;2023-05-29T02:32:59;100967.31;;;15.18;60.04
72892;BME280;61032;50.782;6.818;2023-05-29T02:33:59;100971.28;;;15.17;59.99
72892;BME280;61032;50.782;6.818;2023-05-29T02:34:59;100973.78;;;15.22;59.43
72892;BME280;61032;50.782;6.818;2023-05-29T02:36:00;100976.00;;;15.16;59.65
72892;BME280;61032;50.782;6.818;2023-05-29T02:37:00;100974.63;;;15.10;59.93
72892;BME280;61032;50.782;6.818;2023-05-29T02:38:01;100970.94;;;15.06;59.88
72892;BME280;61032;50.782;6.818;2023-05-29T02:39:01;100976.59;;;15.09;59.85
72892;BME280;61032;50.782;6.818;2023-05-29T02:40:01;100972.91;;;15.05;60.00
72892;BME280;61032;50.782;6.818;2023-05-29T02:41:02;100970.25;;;14.97;60.48
72892;BME280;61032;50.782;6.818;2023-05-29T02:42:02;100968.19;;;14.94;60.53
72892;BME280;61032;50.782;6.818;2023-05-29T02:43:05;100968.66;;;14.96;60.40
72892;BME280;61032;50.782;6.818;2023-05-29T02:44:05;100973.03;;;14.85;60.52
72892;BME280;61032;50.782;6.818;2023-05-29T02:45:06;100962.75;;;14.85;60.82
72892;BME280;61032;50.782;6.818;2023-05-29T02:46:07;100984.22;;;14.88;60.51
72892;BME280;61032;50.782;6.818;2023-05-29T02:47:07;100972.34;;;14.88;60.60
72892;BME280;61032;50.782;6.818;2023-05-29T02:48:07;100974.75;;;14.89;60.84
72892;BME280;61032;50.782;6.818;2023-05-29T02:49:08;100979.16;;;14.90;60.38
72892;BME280;61032;50.782;6.818;2023-05-29T02:50:09;100968.41;;;14.89;60.70
72892;BME280;61032;50.782;6.818;2023-05-29T02:51:09;100976.59;;;14.85;60.50
72892;BME280;61032;50.782;6.818;2023-05-29T02:52:09;100977.66;;;14.81;60.67
72892;BME280;61032;50.782;6.818;2023-05-29T02:53:10;100970.84;;;14.78;60.81
72892;BME280;61032;50.782;6.818;2023-05-29T02:54:10;100979.84;;;14.75;60.91
72892;BME280;61032;50.782;6.818;2023-05-29T02:55:12;100974.31;;;14.75;60.98
72892;BME280;61032;50.782;6.818;2023-05-29T02:56:12;100977.44;;;14.73;60.60
72892;BME280;61032;50.782;6.818;2023-05-29T02:57:13;100978.00;;;14.67;60.86
72892;BME280;61032;50.782;6.818;2023-05-29T02:58:13;100977.19;;;14.66;61.05
72892;BME280;61032;50.782;6.818;2023-05-29T02:59:13;100973.97;;;14.64;61.07
72892;BME280;61032;50.782;6.818;2023-05-29T03:00:14;100972.69;;;14.62;61.32
72892;BME280;61032;50.782;6.818;2023-05-29T03:01:14;100970.28;;;14.60;61.39
72892;BME280;61032;50.782;6.818;2023-05-29T03:02:15;100971.41;;;14.59;61.57
72892;BME280;61032;50.782;6.818;2023-05-29T03:03:15;100972.34;;;14.63;61.19
72892;BME280;61032;50.782;6.818;2023-05-29T03:04:15;100978.91;;;14.59;61.57
72892;BME280;61032;50.782;6.818;2023-05-29T03:05:17;100978.00;;;14.55;61.58
72892;BME280;61032;50.782;6.818;2023-05-29T03:06:18;100981.69;;;14.59;61.36
72892;BME280;61032;50.782;6.818;2023-05-29T03:07:18;100978.44;;;14.57;61.51
72892;BME280;61032;50.782;6.818;2023-05-29T03:08:19;100982.38;;;14.56;61.44
72892;BME280;61032;50.782;6.818;2023-05-29T03:09:19;100983.97;;;14.57;61.55
72892;BME280;61032;50.782;6.818;2023-05-29T03:10:20;100987.91;;;14.56;61.72
72892;BME280;61032;50.782;6.818;2023-05-29T03:11:20;100979.97;;;14.54;61.51
72892;BME280;61032;50.782;6.818;2023-05-29T03:12:23;100986.53;;;14.50;61.76
72892;BME280;61032;50.782;6.818;2023-05-29T03:13:24;100986.06;;;14.48;61.85
72892;BME280;61032;50.782;6.818;2023-05-29T03:14:24;100984.91;;;14.49;61.64
72892;BME280;61032;50.782;6.818;2023-05-29T03:15:24;100977.09;;;14.51;61.31
72892;BME280;61032;50.782;6.818;2023-05-29T03:16:25;100981.00;;;14.50;61.71
72892;BME280;61032;50.782;6.818;2023-05-29T03:17:25;100969.81;;;14.46;61.68
72892;BME280;61032;50.782;6.818;2023-05-29T03:18:25;100982.03;;;14.45;61.64
72892;BME280;61032;50.782;6.818;2023-05-29T03:19:26;100977.97;;;14.42;62.07
72892;BME280;61032;50.782;6.818;2023-05-29T03:20:26;100986.75;;;14.44;61.97
72892;BME280;61032;50.782;6.818;2023-05-29T03:21:51;100982.72;;;14.42;61.76
72892;BME280;61032;50.782;6.818;2023-05-29T03:22:51;100984.31;;;14.43;61.84
72892;BME280;61032;50.782;6.818;2023-05-29T03:23:51;100989.41;;;14.41;61.89
72892;BME280;61032;50.782;6.818;2023-05-29T03:24:52;100990.84;;;14.38;61.92
72892;BME280;61032;50.782;6.818;2023-05-29T03:25:52;100988.25;;;14.42;62.41
72892;BME280;61032;50.782;6.818;2023-05-29T03:26:52;100987.28;;;14.38;62.15
72892;BME280;61032;50.782;6.818;2023-05-29T03:27:53;100988.91;;;14.39;62.61
72892;BME280;61032;50.782;6.818;2023-05-29T03:28:53;100984.16;;;14.39;62.42
72892;BME280;61032;50.782;6.818;2023-05-29T03:29:53;100992.97;;;14.41;62.23
72892;BME280;61032;50.782;6.818;2023-05-29T03:30:54;100993.63;;;14.38;62.33
72892;BME280;61032;50.782;6.818;2023-05-29T03:31:55;100992.69;;;14.34;62.53
72892;BME280;61032;50.782;6.818;2023-05-29T03:32:55;100989.00;;;14.30;62.44
72892;BME280;61032;50.782;6.818;2023-05-29T03:33:55;100990.38;;;14.36;62.77
72892;BME280;61032;50.782;6.818;2023-05-29T03:34:56;100992.69;;;14.34;62.53
72892;BME280;61032;50.782;6.818;2023-05-29T03:35:57;100992.69;;;14.34;62.41
72892;BME280;61032;50.782;6.818;2023-05-29T03:36:58;100995.91;;;14.36;62.36
72892;BME280;61032;50.782;6.818;2023-05-29T03:37:58;101000.56;;;14.32;62.58
72892;BME280;61032;50.782;6.818;2023-05-29T03:38:58;101001.34;;;14.33;62.04
72892;BME280;61032;50.782;6.818;2023-05-29T03:39:59;101008.59;;;14.25;62.71
72892;BME280;61032;50.782;6.818;2023-05-29T03:40:59;101004.41;;;14.19;62.90
72892;BME280;61032;50.782;6.818;2023-05-29T03:42:00;101001.31;;;14.21;62.75
72892;BME280;61032;50.782;6.818;2023-05-29T03:43:00;101005.09;;;14.16;63.12
72892;BME280;61032;50.782;6.818;2023-05-29T03:44:00;100999.56;;;14.16;62.71
72892;BME280;61032;50.782;6.818;2023-05-29T03:45:01;101003.94;;;14.17;63.29
72892;BME280;61032;50.782;6.818;2023-05-29T03:46:01;101001.78;;;14.23;63.05
72892;BME280;61032;50.782;6.818;2023-05-29T03:47:02;100997.75;;;14.20;63.11
72892;BME280;61032;50.782;6.818;2023-05-29T03:48:02;100997.94;;;14.15;63.41
72892;BME280;61032;50.782;6.818;2023-05-29T03:49:02;101003.94;;;14.17;63.62
72892;BME280;61032;50.782;6.818;2023-05-29T03:50:03;100999.22;;;14.18;63.42
72892;BME280;61032;50.782;6.818;2023-05-29T03:51:04;101002.56;;;14.11;63.73
72892;BME280;61032;50.782;6.818;2023-05-29T03:52:05;101008.09;;;14.11;64.10
72892;BME280;61032;50.782;6.818;2023-05-29T03:53:05;101002.66;;;14.15;63.85
72892;BME280;61032;50.782;6.818;2023-05-29T03:54:06;101009.34;;;14.14;63.49
72892;BME280;61032;50.782;6.818;2023-05-29T03:55:08;101009.94;;;14.19;63.58
72892;BME280;61032;50.782;6.818;2023-05-29T03:56:13;101014.34;;;14.20;63.56
72892;BME280;61032;50.782;6.818;2023-05-29T03:57:13;101006.25;;;14.15;63.74
72892;BME280;61032;50.782;6.818;2023-05-29T03:58:13;101010.88;;;14.11;63.91
72892;BME280;61032;50.782;6.818;2023-05-29T03:59:14;101017.31;;;14.15;63.74
72892;BME280;61032;50.782;6.818;2023-05-29T04:00:14;101010.63;;;14.16;63.92
72892;BME280;61032;50.782;6.818;2023-05-29T04:01:15;101009.72;;;14.12;63.88
72892;BME280;61032;50.782;6.818;2023-05-29T04:02:15;101018.81;;;14.13;63.92
72892;BME280;61032;50.782;6.818;2023-05-29T04:03:15;101017.09;;;14.20;63.77
72892;BME280;61032;50.782;6.818;2023-05-29T04:04:16;101014.34;;;14.20;63.36
72892;BME280;61032;50.782;6.818;2023-05-29T04:05:16;101019.41;;;14.18;63.82
72892;BME280;61032;50.782;6.818;2023-05-29T04:06:17;101016.63;;;14.18;64.00
72892;BME280;61032;50.782;6.818;2023-05-29T04:07:18;101006.38;;;14.19;63.43
72892;BME280;61032;50.782;6.818;2023-05-29T04:08:19;101020.06;;;14.15;63.93
72892;BME280;61032;50.782;6.818;2023-05-29T04:09:23;101011.34;;;14.13;63.98
72892;BME280;61032;50.782;6.818;2023-05-29T04:10:25;101007.41;;;14.14;64.13
72892;BME280;61032;50.782;6.818;2023-05-29T04:11:25;101012.59;;;14.16;63.95
72892;BME280;61032;50.782;6.818;2023-05-29T04:12:25;101014.22;;;14.17;64.36
72892;BME280;61032;50.782;6.818;2023-05-29T04:13:26;101016.28;;;14.20;64.02
72892;BME280;61032;50.782;6.818;2023-05-29T04:14:26;101019.53;;;14.22;64.08
72892;BME280;61032;50.782;6.818;2023-05-29T04:15:27;101022.97;;;14.19;63.62
72892;BME280;61032;50.782;6.818;2023-05-29T04:16:28;101022.75;;;14.12;64.16
72892;BME280;61032;50.782;6.818;2023-05-29T04:17:28;101029.16;;;14.03;64.38
72892;BME280;61032;50.782;6.818;2023-05-29T04:18:29;101036.63;;;14.03;64.25
72892;BME280;61032;50.782;6.818;2023-05-29T04:19:29;101036.16;;;14.01;64.53
72892;BME280;61032;50.782;6.818;2023-05-29T04:20:30;101027.00;;;14.09;64.51
72892;BME280;61032;50.782;6.818;2023-05-29T04:21:31;101030.69;;;14.13;64.23
72892;BME280;61032;50.782;6.818;2023-05-29T04:22:32;101035.28;;;14.09;64.22
72892;BME280;61032;50.782;6.818;2023-05-29T04:23:33;101034.47;;;14.08;64.39
72892;BME280;61032;50.782;6.818;2023-05-29T04:24:33;101045.53;;;14.08;64.21
72892;BME280;61032;50.782;6.818;2023-05-29T04:25:35;101040.00;;;14.08;64.34
72892;BME280;61032;50.782;6.818;2023-05-29T04:26:36;101036.91;;;14.10;64.29
72892;BME280;61032;50.782;6.818;2023-05-29T04:27:41;101038.19;;;14.13;64.19
72892;BME280;61032;50.782;6.818;2023-05-29T04:28:41;101035.03;;;14.14;64.14
72892;BME280;61032;50.782;6.818;2023-05-29T04:29:43;101039.44;;;14.15;64.27
72892;BME280;61032;50.782;6.818;2023-05-29T04:30:44;101036.31;;;14.17;64.32
72892;BME280;61032;50.782;6.818;2023-05-29T04:31:44;101039.44;;;14.15;63.95
72892;BME280;61032;50.782;6.818;2023-05-29T04:32:45;101039.91;;;14.17;64.39
72892;BME280;61032;50.782;6.818;2023-05-29T04:33:46;101048.88;;;14.14;64.54
72892;BME280;61032;50.782;6.818;2023-05-29T04:34:47;101048.66;;;14.19;64.32
72892;BME280;61032;50.782;6.818;2023-05-29T04:35:47;101048.66;;;14.19;64.15
72892;BME280;61032;50.782;6.818;2023-05-29T04:36:48;101041.84;;;14.17;64.12
72892;BME280;61032;50.782;6.818;2023-05-29T04:37:49;101049.59;;;14.11;64.30
72892;BME280;61032;50.782;6.818;2023-05-29T04:38:49;101047.84;;;14.19;64.13
72892;BME280;61032;50.782;6.818;2023-05-29T04:39:51;101051.44;;;14.19;64.20
72892;BME280;61032;50.782;6.818;2023-05-29T04:40:52;101049.13;;;14.21;64.17
72892;BME280;61032;50.782;6.818;2023-05-29T04:41:52;101052.38;;;14.23;63.96
72892;BME280;61032;50.782;6.818;2023-05-29T04:42:53;101055.41;;;14.30;63.65
72892;BME280;61032;50.782;6.818;2023-05-29T04:43:53;101059.78;;;14.31;63.59
72892;BME280;61032;50.782;6.818;2023-05-29T04:44:55;101056.09;;;14.39;63.14
72892;BME280;61032;50.782;6.818;2023-05-29T04:45:56;101051.38;;;14.40;63.38
72892;BME280;61032;50.782;6.818;2023-05-29T04:46:56;101047.34;;;14.37;63.21
72892;BME280;61032;50.782;6.818;2023-05-29T04:47:57;101048.31;;;14.41;63.25
72892;BME280;61032;50.782;6.818;2023-05-29T04:48:57;101049.44;;;14.40;63.53
72892;BME280;61032;50.782;6.818;2023-05-29T04:50:01;101052.22;;;14.40;63.16
72892;BME280;61032;50.782;6.818;2023-05-29T04:51:01;101047.00;;;14.39;63.54
72892;BME280;61032;50.782;6.818;2023-05-29T04:52:01;101054.13;;;14.40;63.52
72892;BME280;61032;50.782;6.818;2023-05-29T04:53:02;101047.34;;;14.37;63.46
72892;BME280;61032;50.782;6.818;2023-05-29T04:54:03;101047.63;;;14.44;63.23
72892;BME280;61032;50.782;6.818;2023-05-29T04:55:04;101046.59;;;14.49;63.05
72892;BME280;61032;50.782;6.818;2023-05-29T04:56:05;101056.63;;;14.54;62.97
72892;BME280;61032;50.782;6.818;2023-05-29T04:57:05;101063.00;;;14.54;62.62
72892;BME280;61032;50.782;6.818;2023-05-29T04:58:06;101060.09;;;14.51;63.01
72892;BME280;61032;50.782;6.818;2023-05-29T04:59:06;101062.06;;;14.50;62.75
72892;BME280;61032;50.782;6.818;2023-05-29T05:00:07;101059.03;;;14.55;62.70
72892;BME280;61032;50.782;6.818;2023-05-29T05:01:11;101058.81;;;14.60;62.49
72892;BME280;61032;50.782;6.818;2023-05-29T05:02:14;101061.47;;;14.57;62.63
72892;BME280;61032;50.782;6.818;2023-05-29T05:03:14;101063.56;;;14.60;62.37
72892;BME280;61032;50.782;6.818;2023-05-29T05:04:16;101067.25;;;14.64;62.34
72892;BME280;61032;50.782;6.818;2023-05-29T05:05:17;101069.19;;;14.51;62.82
72892;BME280;61032;50.782;6.818;2023-05-29T05:06:17;101067.00;;;14.57;62.91
72892;BME280;61032;50.782;6.818;2023-05-29T05:07:18;101061.72;;;14.64;62.95
72892;BME280;61032;50.782;6.818;2023-05-29T05:08:19;101061.47;;;14.57;62.37
72892;BME280;61032;50.782;6.818;2023-05-29T05:09:19;101071.84;;;14.60;62.88
72892;BME280;61032;50.782;6.818;2023-05-29T05:10:19;101073.03;;;14.71;62.34
72892;BME280;61032;50.782;6.818;2023-05-29T05:11:22;101063.94;;;14.83;61.90
72892;BME280;61032;50.782;6.818;2023-05-29T05:12:22;101073.28;;;14.90;61.50
72892;BME280;61032;50.782;6.818;2023-05-29T05:13:22;101076.28;;;14.97;61.37
72892;BME280;61032;50.782;6.818;2023-05-29T05:14:23;101082.06;;;15.04;61.54
72892;BME280;61032;50.782;6.818;2023-05-29T05:15:23;101078.25;;;15.09;60.83
72892;BME280;61032;50.782;6.818;2023-05-29T05:16:24;101077.44;;;15.08;60.79
72892;BME280;61032;50.782;6.818;2023-05-29T05:17:25;101073.84;;;15.20;60.49
72892;BME280;61032;50.782;6.818;2023-05-29T05:18:25;101076.38;;;15.25;60.34
72892;BME280;61032;50.782;6.818;2023-05-29T05:19:25;101085.84;;;15.24;60.41
72892;BME280;61032;50.782;6.818;2023-05-29T05:20:26;101085.97;;;15.28;59.56
72892;BME280;61032;50.782;6.818;2023-05-29T05:21:26;101077.19;;;15.26;60.12
72892;BME280;61032;50.782;6.818;2023-05-29T05:22:26;101078.59;;;15.32;59.96
72892;BME280;61032;50.782;6.818;2023-05-29T05:23:27;101078.59;;;15.32;59.81
72892;BME280;61032;50.782;6.818;2023-05-29T05:24:27;101075.81;;;15.32;60.26
72892;BME280;61032;50.782;6.818;2023-05-29T05:25:29;101075.00;;;15.31;60.06
72892;BME280;61032;50.782;6.818;2023-05-29T05:26:29;101075.13;;;15.35;59.84
72892;BME280;61032;50.782;6.818;2023-05-29T05:27:30;101079.97;;;15.38;59.67
72892;BME280;61032;50.782;6.818;2023-05-29T05:28:30;101080.19;;;15.33;59.94
72892;BME280;61032;50.782;6.818;2023-05-29T05:29:30;101080.75;;;15.38;59.78
72892;BME280;61032;50.782;6.818;2023-05-29T05:30:31;101076.00;;;15.39;59.72